Time;durP1;ratioP1;P1;durP2;ratioP2;P2;SDS_P1;SDS_P2;PMS_P1;PMS_P2;Temp;Humidity;BMP_temperature;BMP_pressure;BME280_temperature;BME280_humidity;BME280_pressure;Samples;Min_cycle;Max_cycle;Signal;HPM_P1;HPM_P2
2022/01/13 00:00:56;;;;;;;70.22;28.13;;;5.70;96.00;;;;;;4940555;28;20054;-79
2022/01/13 00:03:22;;;;;;;60.92;26.58;;;5.70;96.00;;;;;;4940114;28;20050;-79
2022/01/13 00:05:48;;;;;;;64.40;26.80;;;5.70;96.40;;;;;;4940201;28;20130;-78
2022/01/13 00:08:13;;;;;;;65.32;27.80;;;5.70;96.10;;;;;;4956473;28;20133;-78
2022/01/13 00:10:39;;;;;;;66.22;25.55;;;5.70;96.10;;;;;;4924200;28;20054;-78
2022/01/13 00:13:07;;;;;;;83.88;29.77;;;5.70;96.10;;;;;;4972053;28;20065;-78
2022/01/13 00:15:45;;;;;;;66.05;26.50;;;5.70;96.10;;;;;;4956463;28;20454;-78
2022/01/13 00:18:14;;;;;;;82.72;28.10;;;5.70;96.10;;;;;;4927485;28;20057;-78
2022/01/13 00:26:12;;;;;;;58.22;24.52;;;5.70;96.20;;;;;;4956213;28;20078;-79
2022/01/13 00:28:38;;;;;;;62.10;24.75;;;5.70;96.20;;;;;;4940927;28;20054;-78
2022/01/13 00:31:06;;;;;;;62.72;26.48;;;5.70;96.20;;;;;;4956294;28;20051;-78
2022/01/13 00:33:31;;;;;;;65.93;26.40;;;5.80;96.20;;;;;;4940338;28;20447;-77
2022/01/13 00:35:59;;;;;;;64.35;25.15;;;5.70;96.20;;;;;;4939847;28;20093;-78
2022/01/13 00:38:25;;;;;;;58.80;25.38;;;5.70;96.20;;;;;;4972793;28;20055;-78
2022/01/13 00:40:51;;;;;;;66.60;25.42;;;5.80;96.30;;;;;;4925831;28;20050;-79
2022/01/13 00:43:17;;;;;;;66.90;26.40;;;5.70;96.30;;;;;;4928072;28;20373;-79
2022/01/13 00:45:43;;;;;;;82.18;28.75;;;5.70;96.30;;;;;;4959103;28;20059;-79
2022/01/13 00:48:08;;;;;;;63.75;25.45;;;5.70;96.30;;;;;;4959590;28;20053;-77
2022/01/13 00:50:34;;;;;;;74.40;28.52;;;5.80;96.30;;;;;;4943214;28;20043;-79
2022/01/13 00:53:01;;;;;;;62.33;26.23;;;5.80;96.30;;;;;;4976062;28;20055;-79
2022/01/13 00:55:46;;;;;;;68.57;27.02;;;5.70;96.30;;;;;;4959308;28;20455;-82
2022/01/13 00:58:12;;;;;;;66.22;26.92;;;5.80;96.30;;;;;;4959359;28;20050;-78
2022/01/13 01:00:38;;;;;;;59.30;25.40;;;5.80;96.30;;;;;;4958994;28;20053;-76
2022/01/13 01:03:03;;;;;;;65.60;24.70;;;5.80;96.70;;;;;;4943461;28;20099;-78
2022/01/13 01:05:29;;;;;;;59.60;24.13;;;5.80;96.30;;;;;;4958921;28;20059;-81
2022/01/13 01:07:55;;;;;;;56.35;23.23;;;5.80;96.40;;;;;;4927072;28;20046;-79
2022/01/13 01:10:23;;;;;;;60.17;25.55;;;5.80;96.40;;;;;;4911925;28;20129;-77
2022/01/13 01:12:48;;;;;;;58.15;23.63;;;5.80;96.40;;;;;;4927153;28;20176;-78
2022/01/13 01:15:14;;;;;;;48.97;21.98;;;5.80;96.40;;;;;;4943013;28;20492;-77
2022/01/13 01:17:46;;;;;;;54.22;22.70;;;5.80;96.40;;;;;;4942706;28;20103;-80
2022/01/13 01:20:13;;;;;;;53.58;23.70;;;5.80;96.40;;;;;;4942954;28;20184;-78
2022/01/13 01:23:10;;;;;;;59.13;23.50;;;5.80;96.40;;;;;;4958366;28;20059;-78
2022/01/13 01:27:55;;;;;;;66.22;25.55;;;5.80;96.40;;;;;;4942391;28;20141;-78
2022/01/13 01:30:29;;;;;;;50.05;21.45;;;5.80;96.50;;;;;;4942781;28;20042;-79
2022/01/13 01:32:55;;;;;;;52.58;21.35;;;5.80;96.50;;;;;;4927378;28;20491;-77
2022/01/13 01:35:24;;;;;;;69.43;23.88;;;5.80;96.40;;;;;;4927227;28;20055;-78
2022/01/13 01:37:52;;;;;;;49.00;22.70;;;5.80;96.40;;;;;;4959031;28;20406;-78
2022/01/13 01:40:19;;;;;;;50.97;22.08;;;5.80;96.40;;;;;;4943237;28;20047;-79
2022/01/13 01:42:46;;;;;;;50.58;22.60;;;5.80;96.50;;;;;;4927538;28;20057;-77
2022/01/13 01:45:13;;;;;;;47.40;20.40;;;5.80;96.50;;;;;;4959362;28;20093;-77
2022/01/13 01:47:40;;;;;;;51.70;19.90;;;5.80;96.50;;;;;;4927324;28;20121;-78
2022/01/13 01:50:17;;;;;;;49.30;19.98;;;5.80;96.50;;;;;;4958958;28;20057;-78
2022/01/13 01:52:44;;;;;;;43.83;19.70;;;5.80;96.50;;;;;;4957473;28;20137;-77
2022/01/13 01:55:10;;;;;;;53.22;20.88;;;5.80;96.50;;;;;;4958351;28;20049;-77
2022/01/13 01:57:35;;;;;;;46.40;19.83;;;5.80;96.50;;;;;;4926611;28;20062;-78
2022/01/13 02:00:02;;;;;;;47.35;20.25;;;5.80;96.50;;;;;;4926187;28;20139;-77
2022/01/13 02:02:29;;;;;;;46.85;20.77;;;5.80;96.50;;;;;;4911320;28;20491;-77
2022/01/13 02:04:54;;;;;;;43.83;20.48;;;5.80;96.50;;;;;;4926896;28;20046;-79
2022/01/13 02:07:20;;;;;;;44.75;20.20;;;5.80;96.50;;;;;;4942283;28;20479;-78
2022/01/13 02:09:51;;;;;;;46.78;20.60;;;5.80;96.50;;;;;;4926051;28;20058;-79
2022/01/13 02:12:27;;;;;;;43.67;19.33;;;5.80;96.50;;;;;;4958094;28;20062;-79
2022/01/13 02:15:15;;;;;;;45.08;20.02;;;5.80;96.50;;;;;;4912589;28;20461;-78
2022/01/13 02:17:41;;;;;;;44.65;19.60;;;5.90;96.60;;;;;;4945160;28;20051;-78
2022/01/13 02:20:08;;;;;;;49.92;19.98;;;5.80;96.50;;;;;;4941784;28;20049;-78
2022/01/13 02:22:37;;;;;;;59.55;21.73;;;5.80;96.50;;;;;;4941703;28;20518;-78
2022/01/13 02:25:03;;;;;;;43.42;19.20;;;5.90;96.60;;;;;;4941640;28;20086;-78
2022/01/13 02:27:29;;;;;;;44.88;20.85;;;5.90;96.50;;;;;;4957989;28;20098;-77
2022/01/13 02:29:55;;;;;;;41.10;18.42;;;5.80;96.50;;;;;;4957581;28;20093;-78
2022/01/13 02:32:20;;;;;;;46.17;19.52;;;5.80;96.50;;;;;;4941905;28;20131;-78
2022/01/13 02:34:47;;;;;;;45.03;20.15;;;5.90;96.60;;;;;;4925675;28;20047;-79
2022/01/13 02:37:13;;;;;;;44.88;20.42;;;5.90;96.60;;;;;;4941974;28;20125;-78
2022/01/13 02:39:41;;;;;;;50.42;19.95;;;5.90;96.60;;;;;;4925620;28;20539;-79
2022/01/13 02:42:12;;;;;;;41.58;20.50;;;5.90;96.60;;;;;;4941423;28;20054;-79
2022/01/13 02:44:48;;;;;;;48.75;19.55;;;5.90;96.60;;;;;;4943227;28;20054;-78
2022/01/13 02:49:58;;;;;;;45.42;20.95;;;5.90;96.60;;;;;;4943449;28;20059;-79
2022/01/13 02:52:23;;;;;;;45.78;20.25;;;5.90;96.60;;;;;;4941257;28;20069;-79
2022/01/13 02:54:49;;;;;;;46.03;19.77;;;5.90;96.60;;;;;;4941183;28;20507;-77
2022/01/13 02:57:15;;;;;;;46.28;21.15;;;5.90;96.60;;;;;;4957293;28;20431;-77
2022/01/13 02:59:40;;;;;;;42.40;20.00;;;5.90;96.60;;;;;;4941183;28;20039;-77
2022/01/13 03:02:06;;;;;;;41.88;19.80;;;5.80;96.60;;;;;;4940938;28;20070;-77
2022/01/13 03:04:32;;;;;;;44.35;20.38;;;5.90;96.60;;;;;;4956946;28;20085;-78
2022/01/13 03:06:58;;;;;;;51.63;21.42;;;5.80;96.60;;;;;;4956542;28;20062;-78
2022/01/13 03:09:24;;;;;;;40.25;20.55;;;5.90;96.60;;;;;;4941425;28;20059;-77
2022/01/13 03:11:50;;;;;;;51.88;20.50;;;5.90;96.60;;;;;;4941129;28;20130;-78
2022/01/13 03:14:16;;;;;;;50.58;20.80;;;5.90;96.60;;;;;;4941209;28;20061;-77
2022/01/13 03:16:43;;;;;;;40.60;18.00;;;5.80;96.60;;;;;;4909686;28;20133;-78
2022/01/13 03:19:09;;;;;;;41.95;19.83;;;5.80;96.60;;;;;;4940432;28;20105;-77
2022/01/13 03:21:35;;;;;;;41.78;18.33;;;5.80;96.60;;;;;;4940580;28;20435;-78
2022/01/13 03:24:03;;;;;;;44.75;18.98;;;5.90;96.60;;;;;;4956723;28;20086;-77
2022/01/13 03:26:29;;;;;;;39.22;18.05;;;5.80;96.60;;;;;;4910104;28;20047;-77
2022/01/13 03:28:55;;;;;;;39.78;18.13;;;5.80;96.60;;;;;;4940569;28;20399;-79
2022/01/13 03:31:23;;;;;;;43.45;17.98;;;5.80;96.60;;;;;;4941141;28;20126;-77
2022/01/13 03:33:53;;;;;;;38.50;17.77;;;5.90;96.60;;;;;;4925205;28;20054;-78
2022/01/13 03:36:18;;;;;;;32.15;16.20;;;5.80;96.60;;;;;;4956560;28;20061;-78
2022/01/13 03:38:44;;;;;;;46.95;17.73;;;5.80;96.60;;;;;;4956570;28;20042;-79
2022/01/13 03:41:10;;;;;;;37.95;17.13;;;5.80;96.60;;;;;;4940578;28;20183;-79
2022/01/13 03:43:37;;;;;;;46.33;17.98;;;5.80;96.90;;;;;;4925089;28;20388;-77
2022/01/13 03:46:04;;;;;;;37.17;17.08;;;5.80;96.60;;;;;;4924882;28;20113;-78
2022/01/13 03:48:29;;;;;;;40.33;18.80;;;5.70;96.60;;;;;;4940637;28;20081;-78
2022/01/13 03:50:55;;;;;;;30.20;16.65;;;5.80;96.60;;;;;;4956344;28;20082;-77
2022/01/13 03:53:27;;;;;;;37.22;17.75;;;5.80;96.60;;;;;;4940219;28;20057;-78
2022/01/13 03:56:21;;;;;;;33.47;17.02;;;5.80;96.60;;;;;;4956519;28;20054;-79
2022/01/13 03:59:26;;;;;;;33.90;17.42;;;5.80;96.70;;;;;;4956416;28;20472;-77
2022/01/13 04:02:10;;;;;;;31.42;16.05;;;5.80;96.60;;;;;;4956457;28;20057;-76
2022/01/13 04:04:42;;;;;;;40.50;16.48;;;5.70;96.60;;;;;;4956368;28;20043;-77
2022/01/13 04:07:28;;;;;;;37.72;17.50;;;5.70;96.60;;;;;;4940158;28;20090;-77
2022/01/13 04:09:54;;;;;;;31.95;15.93;;;5.70;96.60;;;;;;4956137;28;20055;-78
2022/01/13 04:12:22;;;;;;;33.53;15.82;;;5.70;96.60;;;;;;4971881;28;20554;-78
2022/01/13 04:14:55;;;;;;;35.53;16.25;;;5.70;96.60;;;;;;4956656;28;20495;-77
2022/01/13 04:17:22;;;;;;;43.55;17.95;;;5.70;96.60;;;;;;4929539;28;20057;-77
2022/01/13 04:19:48;;;;;;;31.08;15.93;;;5.70;96.60;;;;;;4928219;28;20085;-78
2022/01/13 04:22:14;;;;;;;35.35;15.85;;;5.70;96.60;;;;;;4959342;28;20054;-78
2022/01/13 04:24:45;;;;;;;36.05;17.10;;;5.70;96.60;;;;;;4928362;28;20065;-77
2022/01/13 04:27:12;;;;;;;29.80;15.00;;;5.70;96.60;;;;;;4928392;28;20086;-78
2022/01/13 04:29:41;;;;;;;37.60;16.05;;;5.70;96.60;;;;;;4944378;28;20053;-78
2022/01/13 04:32:07;;;;;;;33.47;16.63;;;5.80;96.60;;;;;;4944369;28;20070;-79
2022/01/13 04:34:33;;;;;;;34.58;17.38;;;5.70;96.60;;;;;;4928472;28;20142;-77
2022/01/13 04:36:59;;;;;;;33.05;15.80;;;5.70;96.60;;;;;;4943894;28;20090;-79
2022/01/13 04:39:26;;;;;;;31.10;16.42;;;5.70;96.60;;;;;;4927454;28;20057;-79
2022/01/13 04:41:54;;;;;;;35.92;16.98;;;5.70;96.60;;;;;;4943682;28;20043;-79
2022/01/13 04:44:21;;;;;;;34.20;15.48;;;5.70;96.60;;;;;;4943651;28;20053;-80
2022/01/13 04:46:48;;;;;;;29.50;15.57;;;5.70;96.60;;;;;;4928240;28;20047;-78
2022/01/13 04:49:13;;;;;;;34.90;17.55;;;5.70;96.60;;;;;;4927485;28;20046;-79
2022/01/13 04:51:40;;;;;;;33.30;16.77;;;5.70;96.70;;;;;;4927966;28;20472;-78
2022/01/13 04:54:05;;;;;;;35.38;17.00;;;5.70;96.70;;;;;;4927494;28;20542;-78
2022/01/13 04:56:39;;;;;;;32.55;16.73;;;5.60;96.60;;;;;;4959123;28;20129;-78
2022/01/13 04:59:05;;;;;;;29.17;16.33;;;5.70;96.70;;;;;;4959554;28;20078;-77
2022/01/13 05:01:31;;;;;;;40.38;17.65;;;5.70;96.70;;;;;;4943165;28;20047;-78
2022/01/13 05:03:57;;;;;;;29.73;16.20;;;5.70;96.70;;;;;;4927433;28;20447;-78
2022/01/13 05:06:22;;;;;;;41.30;17.65;;;5.70;96.70;;;;;;4927149;28;20191;-80
2022/01/13 05:08:48;;;;;;;29.75;14.57;;;5.70;96.70;;;;;;4943020;28;20483;-79
2022/01/13 05:11:14;;;;;;;30.67;15.63;;;5.60;96.70;;;;;;4911302;28;20051;-79
2022/01/13 05:13:40;;;;;;;35.92;16.20;;;5.60;96.70;;;;;;4927158;28;20464;-78
2022/01/13 05:16:09;;;;;;;33.38;16.73;;;5.60;96.70;;;;;;4943130;28;20133;-78
2022/01/13 05:22:06;;;;;;;32.85;15.40;;;5.60;96.60;;;;;;4897812;29;20147;-77
2022/01/13 05:24:30;;;;;;;33.67;14.60;;;5.60;96.70;;;;;;4934134;28;20054;-78
2022/01/13 05:26:55;;;;;;;28.92;14.82;;;5.60;96.60;;;;;;4943803;28;20073;-78
2022/01/13 05:29:21;;;;;;;31.67;15.55;;;5.60;96.60;;;;;;4943502;28;20061;-78
2022/01/13 05:31:47;;;;;;;32.58;16.98;;;5.60;96.60;;;;;;4943407;28;20053;-78
2022/01/13 05:34:13;;;;;;;32.60;16.60;;;5.60;96.60;;;;;;4942855;28;20090;-79
2022/01/13 05:36:39;;;;;;;33.90;16.23;;;5.50;96.60;;;;;;4926992;28;20082;-78
2022/01/13 05:39:04;;;;;;;29.95;15.35;;;5.50;96.60;;;;;;4958502;28;20042;-78
2022/01/13 05:41:31;;;;;;;32.95;15.88;;;5.50;96.60;;;;;;4958644;28;20049;-78
2022/01/13 05:43:57;;;;;;;35.33;16.98;;;5.50;96.60;;;;;;4927278;28;20074;-79
2022/01/13 05:46:23;;;;;;;31.58;15.77;;;5.50;96.70;;;;;;4926393;28;20054;-79
2022/01/13 05:48:49;;;;;;;35.47;18.05;;;5.50;96.70;;;;;;4927072;28;20034;-78
2022/01/13 05:51:14;;;;;;;36.40;17.02;;;5.50;97.00;;;;;;4927059;28;20443;-78
2022/01/13 05:53:40;;;;;;;41.10;16.75;;;5.50;96.70;;;;;;4942339;28;20480;-79
2022/01/13 05:56:06;;;;;;;33.80;15.35;;;5.50;96.70;;;;;;4926521;28;20517;-79
2022/01/13 05:58:32;;;;;;;39.20;17.92;;;5.50;96.60;;;;;;4942178;28;20051;-78
2022/01/13 06:00:58;;;;;;;37.85;16.67;;;5.50;96.60;;;;;;4926822;28;20475;-78
2022/01/13 06:03:23;;;;;;;33.42;16.15;;;5.50;96.70;;;;;;4926378;28;20051;-78
2022/01/13 06:05:49;;;;;;;34.85;18.38;;;5.50;96.70;;;;;;4926535;28;20049;-78
2022/01/13 06:08:15;;;;;;;36.08;17.85;;;5.60;96.70;;;;;;4926520;28;20145;-78
2022/01/13 06:10:44;;;;;;;33.67;16.70;;;5.50;96.70;;;;;;4941907;28;20450;-78
2022/01/13 06:13:10;;;;;;;34.70;18.52;;;5.50;96.70;;;;;;4926971;28;20058;-79
2022/01/13 06:15:37;;;;;;;38.30;18.65;;;5.50;96.70;;;;;;4941297;28;20055;-78
2022/01/13 06:18:03;;;;;;;38.70;17.50;;;5.50;96.70;;;;;;4975368;28;20403;-78
2022/01/13 06:20:29;;;;;;;34.88;17.25;;;5.50;96.70;;;;;;4941201;28;20093;-79
2022/01/13 06:22:55;;;;;;;37.25;18.17;;;5.50;96.70;;;;;;4957728;28;20106;-78
2022/01/13 06:25:21;;;;;;;35.28;17.77;;;5.50;96.70;;;;;;4957914;28;20054;-80
2022/01/13 06:27:46;;;;;;;40.35;19.27;;;5.50;96.70;;;;;;4925930;28;20133;-79
2022/01/13 06:30:14;;;;;;;40.22;19.65;;;5.50;96.70;;;;;;4941668;28;20137;-79
2022/01/13 06:32:40;;;;;;;38.28;19.63;;;5.50;96.70;;;;;;4910114;28;20058;-79
2022/01/13 06:35:06;;;;;;;34.67;17.48;;;5.50;96.70;;;;;;4941902;28;20050;-79
2022/01/13 06:37:32;;;;;;;38.72;19.27;;;5.50;96.80;;;;;;4941171;28;20042;-79
2022/01/13 06:40:00;;;;;;;34.70;18.33;;;5.50;96.80;;;;;;4957019;28;20050;-80
2022/01/13 06:42:25;;;;;;;38.70;18.38;;;5.50;96.80;;;;;;4957119;28;20158;-79
2022/01/13 06:44:51;;;;;;;35.60;17.70;;;5.50;96.80;;;;;;4941717;28;20527;-79
2022/01/13 06:47:17;;;;;;;39.10;19.88;;;5.50;96.70;;;;;;4941558;28;20047;-79
2022/01/13 06:49:43;;;;;;;34.72;19.65;;;5.50;96.80;;;;;;4941132;28;20081;-79
2022/01/13 06:52:09;;;;;;;39.60;19.48;;;5.50;96.80;;;;;;4941598;28;20491;-79
2022/01/13 06:54:35;;;;;;;32.63;17.42;;;5.50;96.70;;;;;;4925532;28;20137;-78
2022/01/13 06:57:00;;;;;;;42.55;19.30;;;5.50;96.80;;;;;;4941679;28;20043;-79
2022/01/13 06:59:26;;;;;;;41.97;18.55;;;5.50;96.80;;;;;;4925433;28;20050;-78
2022/01/13 07:01:52;;;;;;;40.00;17.85;;;5.50;96.70;;;;;;4941294;28;20046;-78
2022/01/13 07:04:18;;;;;;;41.55;20.13;;;5.50;96.80;;;;;;4941526;28;20491;-79
2022/01/13 07:06:44;;;;;;;38.55;19.15;;;5.40;96.80;;;;;;4956987;28;20065;-79
2022/01/13 07:09:12;;;;;;;39.58;18.20;;;5.50;96.80;;;;;;4925412;28;20046;-79
2022/01/13 07:11:37;;;;;;;48.40;20.25;;;5.50;96.80;;;;;;4909027;28;20057;-79
2022/01/13 07:14:03;;;;;;;35.13;18.20;;;5.50;96.80;;;;;;4940154;28;20055;-79
2022/01/13 07:16:29;;;;;;;36.28;19.50;;;5.50;96.80;;;;;;4924445;28;20081;-80
2022/01/13 07:18:55;;;;;;;50.28;20.15;;;5.50;96.80;;;;;;4923264;28;20404;-75
2022/01/13 07:21:23;;;;;;;42.55;19.63;;;5.50;96.80;;;;;;4924571;28;20406;-77
2022/01/13 07:23:48;;;;;;;41.65;20.02;;;5.40;96.80;;;;;;4940091;28;20050;-77
2022/01/13 07:26:14;;;;;;;45.22;20.52;;;5.50;96.80;;;;;;4955764;28;20460;-82
2022/01/13 07:28:40;;;;;;;42.20;19.05;;;5.50;96.90;;;;;;4924102;28;20150;-82
2022/01/13 07:31:06;;;;;;;35.33;19.85;;;5.50;96.90;;;;;;4909654;28;20066;-82
2022/01/13 07:33:32;;;;;;;45.28;20.42;;;5.50;96.90;;;;;;4924232;28;20038;-77
2022/01/13 07:35:58;;;;;;;55.63;21.50;;;5.50;96.90;;;;;;4924949;28;20129;-79
2022/01/13 07:38:24;;;;;;;47.10;20.13;;;5.50;96.90;;;;;;4910888;28;20129;-85
2022/01/13 07:40:50;;;;;;;37.45;19.15;;;5.50;96.90;;;;;;4942120;28;20126;-85
2022/01/13 07:43:23;;;;;;;38.10;20.27;;;5.50;96.90;;;;;;4926336;28;20051;-84
2022/01/13 07:45:49;;;;;;;40.85;20.58;;;5.50;96.90;;;;;;4927049;28;20110;-83
2022/01/13 07:48:16;;;;;;;35.50;18.63;;;5.50;96.90;;;;;;4942454;28;20042;-80
2022/01/13 07:50:41;;;;;;;42.90;20.17;;;5.50;96.90;;;;;;4926742;28;20042;-83
2022/01/13 07:53:07;;;;;;;47.30;21.23;;;5.50;96.90;;;;;;4961220;28;20220;-87
2022/01/13 07:55:33;;;;;;;36.35;18.60;;;5.50;96.90;;;;;;4946042;28;20070;-87
2022/01/13 07:57:59;;;;;;;40.42;20.35;;;5.50;96.90;;;;;;4913458;28;20134;-85
2022/01/13 08:00:24;;;;;;;41.17;20.27;;;5.50;96.90;;;;;;4945045;28;20047;-84
2022/01/13 08:02:50;;;;;;;46.58;19.30;;;5.50;96.90;;;;;;4960598;28;20049;-86
2022/01/13 08:05:16;;;;;;;39.75;19.10;;;5.50;96.90;;;;;;4944709;28;20046;-85
2022/01/13 08:07:41;;;;;;;33.65;17.95;;;5.50;96.90;;;;;;4927477;28;20046;-84
2022/01/13 08:10:07;;;;;;;36.70;17.75;;;5.50;96.90;;;;;;4959767;28;20125;-84
2022/01/13 08:12:33;;;;;;;39.47;19.60;;;5.50;96.90;;;;;;4959741;28;20436;-85
2022/01/13 08:14:59;;;;;;;35.03;18.90;;;5.60;96.90;;;;;;4933116;29;20138;-85
2022/01/13 08:20:09;;;;;;;32.30;16.77;;;5.50;96.90;;;;;;4934885;29;20039;-86
2022/01/13 08:22:37;;;;;;;35.45;18.13;;;5.80;97.30;;;;;;4918954;29;20536;-84
2022/01/13 08:25:03;;;;;;;36.97;18.90;;;5.80;97.00;;;;;;4922421;29;20063;-84
2022/01/13 08:27:32;;;;;;;37.58;18.83;;;5.80;96.80;;;;;;4954455;29;20043;-84
2022/01/13 08:29:57;;;;;;;36.83;17.75;;;5.80;96.80;;;;;;4938903;29;20043;-86
2022/01/13 08:32:24;;;;;;;35.22;17.67;;;5.80;96.80;;;;;;4907434;29;20043;-85
2022/01/13 08:34:49;;;;;;;34.88;17.48;;;5.80;96.80;;;;;;4923342;29;20051;-86
2022/01/13 08:37:15;;;;;;;39.10;17.10;;;5.80;96.80;;;;;;4923774;29;20051;-85
2022/01/13 08:39:44;;;;;;;37.17;17.30;;;5.80;96.80;;;;;;4938707;29;20039;-84
2022/01/13 08:42:11;;;;;;;31.10;16.38;;;5.70;96.80;;;;;;4923765;29;20047;-83
2022/01/13 08:44:37;;;;;;;32.85;17.05;;;5.70;96.80;;;;;;4922783;29;20047;-84
2022/01/13 08:47:03;;;;;;;37.28;17.83;;;5.70;96.80;;;;;;4923032;29;20134;-85
2022/01/13 08:49:29;;;;;;;40.08;19.15;;;5.70;97.10;;;;;;4922545;29;20071;-84
2022/01/13 08:51:55;;;;;;;37.78;18.10;;;5.70;96.80;;;;;;4905541;29;20052;-80
2022/01/13 08:54:22;;;;;;;42.00;18.83;;;5.80;96.80;;;;;;4937016;29;20078;-80
2022/01/13 08:56:48;;;;;;;33.63;17.08;;;5.70;96.70;;;;;;4937209;29;20083;-84
2022/01/13 08:59:14;;;;;;;37.85;18.83;;;5.70;96.70;;;;;;4922212;29;20078;-80
2022/01/13 09:01:39;;;;;;;35.03;17.83;;;5.70;96.70;;;;;;4923322;29;20051;-84
2022/01/13 09:04:05;;;;;;;38.33;18.67;;;5.80;96.80;;;;;;4956799;29;20192;-85
2022/01/13 09:06:31;;;;;;;41.55;19.50;;;5.80;96.80;;;;;;4927589;29;20047;-84
2022/01/13 09:08:57;;;;;;;40.92;19.92;;;5.80;96.80;;;;;;4925481;29;20540;-84
2022/01/13 09:11:24;;;;;;;37.92;18.45;;;5.70;96.70;;;;;;4924619;29;20047;-84
2022/01/13 09:13:56;;;;;;;40.20;17.60;;;5.80;96.80;;;;;;4922957;29;20051;-84
2022/01/13 09:16:27;;;;;;;42.17;18.15;;;5.80;96.80;;;;;;4922519;29;20055;-83
2022/01/13 09:21:25;;;;;;;43.75;20.20;;;5.80;96.80;;;;;;4922031;29;20106;-82
2022/01/13 09:23:51;;;;;;;37.22;19.27;;;5.80;96.80;;;;;;4943280;29;20051;-82
2022/01/13 09:26:16;;;;;;;42.17;20.60;;;5.80;96.80;;;;;;4928231;29;20055;-82
2022/01/13 09:28:42;;;;;;;37.33;18.70;;;5.80;96.80;;;;;;4946936;29;20074;-83
2022/01/13 09:31:09;;;;;;;44.47;20.30;;;5.90;96.80;;;;;;4946334;29;20051;-83
2022/01/13 09:33:35;;;;;;;37.08;18.42;;;5.80;96.80;;;;;;4945912;29;20051;-86
2022/01/13 09:36:01;;;;;;;42.72;20.60;;;5.90;96.80;;;;;;4912372;29;20052;-83
2022/01/13 09:38:28;;;;;;;45.38;20.73;;;5.90;96.80;;;;;;4913291;29;20047;-82
2022/01/13 09:40:54;;;;;;;40.28;19.42;;;5.90;96.80;;;;;;4929886;29;20097;-82
2022/01/13 09:43:28;;;;;;;42.65;19.02;;;5.90;96.80;;;;;;4945459;29;20058;-82
2022/01/13 09:45:57;;;;;;;42.83;19.13;;;5.90;96.80;;;;;;4914429;29;20059;-83
2022/01/13 09:48:23;;;;;;;37.90;18.85;;;5.90;96.80;;;;;;4930703;29;20047;-84
2022/01/13 09:50:53;;;;;;;37.97;19.70;;;5.90;96.80;;;;;;4929475;29;20098;-81
2022/01/13 09:53:19;;;;;;;38.65;20.67;;;6.00;96.80;;;;;;4928776;29;20113;-80
2022/01/13 09:55:45;;;;;;;43.15;19.52;;;5.90;96.80;;;;;;4928389;29;20055;-81
2022/01/13 09:58:14;;;;;;;42.38;20.50;;;6.00;96.90;;;;;;4929470;29;20083;-78
2022/01/13 10:00:46;;;;;;;39.42;18.95;;;6.00;96.80;;;;;;4943132;29;20497;-80
2022/01/13 10:03:17;;;;;;;43.65;19.48;;;6.00;96.80;;;;;;4927589;29;20057;-80
2022/01/13 10:06:23;;;;;;;41.72;18.83;;;6.00;96.80;;;;;;4927997;29;20055;-80
2022/01/13 10:08:54;;;;;;;36.33;16.77;;;6.00;96.90;;;;;;4926574;29;20044;-80
2022/01/13 10:11:34;;;;;;;37.72;17.80;;;6.10;96.90;;;;;;4927297;29;20492;-79
2022/01/13 10:14:10;;;;;;;39.10;19.75;;;6.20;97.10;;;;;;4950972;29;20059;-80
2022/01/13 10:16:41;;;;;;;40.70;18.25;;;6.20;96.90;;;;;;4947881;28;20058;-79
2022/01/13 10:19:07;;;;;;;43.20;18.63;;;6.20;96.80;;;;;;4931204;29;20098;-80
2022/01/13 10:21:33;;;;;;;37.92;18.88;;;6.20;96.80;;;;;;4931263;29;20071;-81
2022/01/13 10:24:09;;;;;;;42.63;19.38;;;6.20;97.10;;;;;;4915736;29;20051;-82
2022/01/13 10:26:40;;;;;;;37.25;18.27;;;6.20;96.80;;;;;;4933116;29;20043;-82
2022/01/13 10:29:07;;;;;;;32.85;17.85;;;6.20;96.70;;;;;;4931304;29;20487;-80
2022/01/13 10:31:54;;;;;;;37.80;19.63;;;6.20;96.70;;;;;;4962438;29;20492;-83
2022/01/13 10:34:26;;;;;;;40.17;18.70;;;6.30;96.80;;;;;;4915205;29;20131;-82
2022/01/13 10:37:01;;;;;;;28.95;16.90;;;6.20;96.80;;;;;;4930592;29;20121;-80
2022/01/13 10:40:09;;;;;;;36.40;18.75;;;6.20;96.80;;;;;;4961913;29;20130;-80
2022/01/13 10:45:21;;;;;;;37.60;17.88;;;6.80;98.20;;;;;;4932005;29;20126;-80
2022/01/13 10:48:07;;;;;;;35.40;18.77;;;6.80;97.20;;;;;;4946818;29;20055;-81
2022/01/13 10:50:40;;;;;;;38.42;17.95;;;6.80;96.70;;;;;;4931193;29;20107;-78
2022/01/13 10:53:20;;;;;;;37.35;18.05;;;6.80;96.60;;;;;;4930306;29;20057;-78
2022/01/13 10:55:48;;;;;;;33.42;17.05;;;6.70;96.60;;;;;;4946201;29;20129;-80
2022/01/13 10:58:15;;;;;;;36.60;18.55;;;6.70;96.60;;;;;;4961565;29;20051;-80
2022/01/13 11:00:43;;;;;;;37.35;17.23;;;6.60;96.60;;;;;;4945921;29;20051;-80
2022/01/13 11:03:18;;;;;;;34.95;17.83;;;6.70;96.70;;;;;;4929978;29;20491;-81
2022/01/13 11:05:50;;;;;;;34.50;18.33;;;6.60;96.70;;;;;;4947612;29;20047;-85
2022/01/13 11:08:31;;;;;;;38.95;18.98;;;6.60;96.70;;;;;;4948204;29;20051;-86
2022/01/13 11:11:00;;;;;;;38.05;19.45;;;6.60;96.70;;;;;;4949489;29;20043;-82
2022/01/13 11:13:28;;;;;;;36.67;19.23;;;6.60;96.70;;;;;;4916737;28;20083;-88
2022/01/13 11:15:55;;;;;;;39.70;19.85;;;6.60;96.70;;;;;;4934005;28;20058;-79
2022/01/13 11:18:26;;;;;;;38.78;18.92;;;6.60;96.80;;;;;;4932698;28;20054;-79
2022/01/13 11:20:52;;;;;;;40.63;20.55;;;6.60;96.80;;;;;;4932793;28;20046;-79
2022/01/13 11:23:18;;;;;;;38.35;19.00;;;6.60;96.80;;;;;;4947989;28;20039;-79
2022/01/13 11:25:49;;;;;;;40.70;19.42;;;6.60;96.80;;;;;;4947364;28;20051;-78
2022/01/13 11:28:15;;;;;;;41.75;20.92;;;6.60;96.80;;;;;;4932577;28;20042;-80
2022/01/13 11:30:41;;;;;;;42.88;20.25;;;6.60;96.70;;;;;;4932896;28;20043;-79
2022/01/13 11:33:07;;;;;;;40.58;18.52;;;6.50;96.70;;;;;;4932846;28;20054;-79
2022/01/13 11:35:35;;;;;;;40.78;20.35;;;6.60;96.70;;;;;;4965581;28;20115;-79
2022/01/13 11:38:05;;;;;;;47.35;21.63;;;6.60;96.80;;;;;;4933391;28;20046;-80
2022/01/13 11:40:36;;;;;;;41.22;21.73;;;6.60;96.80;;;;;;4949098;28;20046;-81
2022/01/13 11:43:03;;;;;;;43.50;21.53;;;6.60;96.80;;;;;;4948824;28;20133;-79
2022/01/13 11:45:29;;;;;;;37.17;18.50;;;6.60;96.80;;;;;;4948980;28;20399;-80
2022/01/13 11:48:16;;;;;;;42.15;20.65;;;6.50;96.70;;;;;;4964546;28;20046;-78
2022/01/13 11:50:47;;;;;;;40.70;21.13;;;6.60;96.70;;;;;;4980345;28;20039;-79
2022/01/13 11:53:22;;;;;;;40.40;19.85;;;6.60;96.70;;;;;;4934030;28;20117;-80
2022/01/13 11:55:57;;;;;;;42.63;20.83;;;6.60;96.70;;;;;;4980095;28;20051;-79
2022/01/13 11:58:31;;;;;;;47.97;21.60;;;6.60;96.70;;;;;;4916908;28;20050;-79
2022/01/13 12:01:08;;;;;;;46.50;21.80;;;6.60;96.70;;;;;;4933723;28;20112;-79
2022/01/13 12:03:34;;;;;;;41.83;20.80;;;6.60;96.70;;;;;;4948431;28;20050;-79
2022/01/13 12:06:01;;;;;;;43.90;19.23;;;6.60;96.60;;;;;;4947957;28;20047;-80
2022/01/13 12:08:51;;;;;;;40.20;20.83;;;6.60;96.60;;;;;;4931859;28;20086;-80
2022/01/13 12:11:42;;;;;;;42.60;20.73;;;6.70;96.60;;;;;;4919277;28;20051;-79
2022/01/13 12:14:27;;;;;;;38.95;20.35;;;6.60;96.60;;;;;;4963910;28;20055;-80
2022/01/13 12:16:58;;;;;;;41.70;20.92;;;6.70;96.60;;;;;;4964856;28;20046;-79
2022/01/13 12:19:37;;;;;;;39.08;21.20;;;6.70;96.60;;;;;;4948765;28;20085;-79
2022/01/13 12:22:10;;;;;;;45.78;21.17;;;6.60;96.90;;;;;;4950948;28;20053;-80
2022/01/13 12:24:58;;;;;;;42.78;22.48;;;6.70;96.60;;;;;;4965748;28;20057;-80
2022/01/13 12:27:50;;;;;;;42.05;19.60;;;6.70;96.60;;;;;;4948675;28;20506;-80
2022/01/13 12:30:23;;;;;;;39.58;19.65;;;6.70;96.50;;;;;;4957884;28;20062;-78
2022/01/13 12:32:56;;;;;;;38.80;19.73;;;6.70;96.50;;;;;;4965278;28;20065;-81
2022/01/13 12:35:22;;;;;;;42.22;19.98;;;6.70;96.50;;;;;;4951265;28;20051;-79
2022/01/13 12:38:01;;;;;;;40.53;20.08;;;6.70;96.50;;;;;;4968793;28;20038;-80
2022/01/13 12:40:28;;;;;;;43.65;22.27;;;6.70;96.50;;;;;;4954418;28;20039;-81
2022/01/13 12:42:54;;;;;;;42.38;20.60;;;6.70;96.80;;;;;;4938063;28;20058;-82
2022/01/13 12:45:29;;;;;;;45.20;21.38;;;6.70;96.50;;;;;;4938343;28;20054;-81
2022/01/13 12:47:59;;;;;;;39.72;20.95;;;6.70;96.50;;;;;;4955088;28;20062;-81
2022/01/13 12:50:27;;;;;;;41.17;20.70;;;6.70;96.50;;;;;;4952772;28;20050;-80
2022/01/13 12:52:57;;;;;;;41.33;21.30;;;6.70;96.50;;;;;;4953226;28;20057;-81
2022/01/13 12:55:23;;;;;;;41.40;21.33;;;6.70;96.50;;;;;;4969450;28;20057;-80
2022/01/13 12:57:53;;;;;;;46.00;22.05;;;6.70;96.50;;;;;;4936474;28;20085;-81
2022/01/13 13:00:21;;;;;;;43.92;22.05;;;6.70;96.50;;;;;;4935991;28;20047;-80
2022/01/13 13:02:52;;;;;;;43.30;21.58;;;6.70;96.50;;;;;;4967752;28;20074;-78
2022/01/13 13:05:38;;;;;;;42.95;21.83;;;6.70;96.50;;;;;;4967003;28;20054;-79